Rechercher aéroport 
image banner adimage banner ad
image banner ad

SWQJ - Campos de Júlio Airport

Situé à Campos De Júlio, Brazil

ICAO - SWQJ, IATA -

Données fournies par Airmate  

Information générale

Coordonnées: S28°3'8" W51°57'39"
Élévation : 2198 feet MSL.
Variation magnétique : -17° East
Voir autres Aéroports à Rio Grande do Sul

Données opérationnelles

Accessible au public
Heure actuelle UTC:
Heure actuelle locale:
Météo à : SBPF - Lauro Kurtz Airport ( 42 km )
METAR: SBPF 301400Z 36014KT 330V030 9999 SCT040 26/21 Q1014
Voir NOTAMs / SUP AIP / TFR affectant cet aéroport [VIEW]
Fréquences de communication: [VIEW]

Pistes:

Identifiant RWYQFULongueur (ft)Largeur (ft)SurfaceLDA (ft)
10229665GRASS
28229665GRASS

Coordonnées de l'aéroport

Adresse: Campos De Júlio Brazil

Vue satellite de SWQJ